sensor_id;sensor_type;location;lat;lon;timestamp;pressure;altitude;pressure_sealevel;temperature
24740;BMP280;45234;48.148;17.128;2022-12-18T00:03:55;101443.06;;;-0.64
24740;BMP280;45234;48.148;17.128;2022-12-18T00:06:25;101440.28;;;-0.76
24740;BMP280;45234;48.148;17.128;2022-12-18T00:08:54;101440.44;;;-0.79
24740;BMP280;45234;48.148;17.128;2022-12-18T00:11:24;101444.63;;;-0.78
24740;BMP280;45234;48.148;17.128;2022-12-18T00:13:54;101446.53;;;-0.82
24740;BMP280;45234;48.148;17.128;2022-12-18T00:16:23;101453.47;;;-0.86
24740;BMP280;45234;48.148;17.128;2022-12-18T00:18:52;101449.06;;;-0.82
24740;BMP280;45234;48.148;17.128;2022-12-18T00:21:20;101451.47;;;-0.79
24740;BMP280;45234;48.148;17.128;2022-12-18T00:23:48;101449.28;;;-0.87
24740;BMP280;45234;48.148;17.128;2022-12-18T00:26:20;101464.72;;;-0.90
24740;BMP280;45234;48.148;17.128;2022-12-18T00:28:51;101460.38;;;-0.88
24740;BMP280;45234;48.148;17.128;2022-12-18T00:31:23;101460.63;;;-0.92
24740;BMP280;45234;48.148;17.128;2022-12-18T00:33:57;101458.66;;;-0.87
24740;BMP280;45234;48.148;17.128;2022-12-18T00:36:28;101465.16;;;-0.81
24740;BMP280;45234;48.148;17.128;2022-12-18T00:38:59;101462.09;;;-0.88
24740;BMP280;45234;48.148;17.128;2022-12-18T00:41:27;101465.47;;;-0.88
24740;BMP280;45234;48.148;17.128;2022-12-18T00:44:15;101466.06;;;-1.00
24740;BMP280;45234;48.148;17.128;2022-12-18T00:46:44;101471.00;;;-0.97
24740;BMP280;45234;48.148;17.128;2022-12-18T00:49:11;101471.63;;;-0.92
24740;BMP280;45234;48.148;17.128;2022-12-18T00:51:38;101469.00;;;-1.07
24740;BMP280;45234;48.148;17.128;2022-12-18T00:54:05;101470.59;;;-1.05
24740;BMP280;45234;48.148;17.128;2022-12-18T00:56:32;101469.75;;;-1.05
24740;BMP280;45234;48.148;17.128;2022-12-18T00:59:05;101467.25;;;-1.07
24740;BMP280;45234;48.148;17.128;2022-12-18T01:01:32;101477.31;;;-1.04
24740;BMP280;45234;48.148;17.128;2022-12-18T01:04:01;101474.97;;;-1.08
24740;BMP280;45234;48.148;17.128;2022-12-18T01:06:28;101474.78;;;-1.04
24740;BMP280;45234;48.148;17.128;2022-12-18T01:08:55;101474.59;;;-1.01
24740;BMP280;45234;48.148;17.128;2022-12-18T01:11:22;101482.09;;;-0.98
24740;BMP280;45234;48.148;17.128;2022-12-18T01:13:49;101488.00;;;-0.97
24740;BMP280;45234;48.148;17.128;2022-12-18T01:16:16;101482.84;;;-0.96
24740;BMP280;45234;48.148;17.128;2022-12-18T01:18:44;101489.44;;;-0.92
24740;BMP280;45234;48.148;17.128;2022-12-18T01:21:14;101493.63;;;-0.91
24740;BMP280;45234;48.148;17.128;2022-12-18T01:23:41;101500.28;;;-0.88
24740;BMP280;45234;48.148;17.128;2022-12-18T01:26:15;101492.63;;;-0.88
24740;BMP280;45234;48.148;17.128;2022-12-18T01:28:43;101495.94;;;-0.86
24740;BMP280;45234;48.148;17.128;2022-12-18T01:31:19;101507.91;;;-0.88
24740;BMP280;45234;48.148;17.128;2022-12-18T01:33:49;101507.09;;;-0.89
24740;BMP280;45234;48.148;17.128;2022-12-18T01:36:22;101504.53;;;-0.89
24740;BMP280;45234;48.148;17.128;2022-12-18T01:38:52;101508.44;;;-0.81
24740;BMP280;45234;48.148;17.128;2022-12-18T01:41:22;101511.50;;;-0.92
24740;BMP280;45234;48.148;17.128;2022-12-18T01:46:21;101521.31;;;-1.02
24740;BMP280;45234;48.148;17.128;2022-12-18T01:48:50;101519.06;;;-1.08
24740;BMP280;45234;48.148;17.128;2022-12-18T01:51:19;101514.66;;;-1.04
24740;BMP280;45234;48.148;17.128;2022-12-18T01:53:47;101512.75;;;-1.18
24740;BMP280;45234;48.148;17.128;2022-12-18T01:56:18;101518.31;;;-1.10
24740;BMP280;45234;48.148;17.128;2022-12-18T01:59:11;101525.47;;;-1.18
24740;BMP280;45234;48.148;17.128;2022-12-18T02:01:38;101530.28;;;-1.12
24740;BMP280;45234;48.148;17.128;2022-12-18T02:04:25;101532.53;;;-1.23
24740;BMP280;45234;48.148;17.128;2022-12-18T02:07:20;101536.56;;;-1.19
24740;BMP280;45234;48.148;17.128;2022-12-18T02:15:15;101546.56;;;-1.33
24740;BMP280;45234;48.148;17.128;2022-12-18T02:26:11;101563.78;;;-1.40
24740;BMP280;45234;48.148;17.128;2022-12-18T02:29:03;101566.25;;;-1.38
24740;BMP280;45234;48.148;17.128;2022-12-18T02:31:45;101573.78;;;-1.35
24740;BMP280;45234;48.148;17.128;2022-12-18T02:34:14;101570.94;;;-1.29
24740;BMP280;45234;48.148;17.128;2022-12-18T02:36:44;101569.50;;;-1.35
24740;BMP280;45234;48.148;17.128;2022-12-18T02:39:12;101568.56;;;-1.32
24740;BMP280;45234;48.148;17.128;2022-12-18T02:41:51;101569.38;;;-1.32
24740;BMP280;45234;48.148;17.128;2022-12-18T02:44:19;101575.97;;;-1.28
24740;BMP280;45234;48.148;17.128;2022-12-18T02:46:50;101567.03;;;-1.36
24740;BMP280;45234;48.148;17.128;2022-12-18T02:49:26;101575.84;;;-1.44
24740;BMP280;45234;48.148;17.128;2022-12-18T02:57:58;101587.66;;;-1.42
24740;BMP280;45234;48.148;17.128;2022-12-18T03:00:43;101598.47;;;-1.37
24740;BMP280;45234;48.148;17.128;2022-12-18T03:03:30;101596.63;;;-1.34
24740;BMP280;45234;48.148;17.128;2022-12-18T03:08:41;101602.38;;;-1.30
24740;BMP280;45234;48.148;17.128;2022-12-18T03:11:11;101609.25;;;-1.32
24740;BMP280;45234;48.148;17.128;2022-12-18T03:13:50;101597.44;;;-1.33
24740;BMP280;45234;48.148;17.128;2022-12-18T03:16:24;101598.19;;;-1.31
24740;BMP280;45234;48.148;17.128;2022-12-18T03:18:59;101599.09;;;-1.32
24740;BMP280;45234;48.148;17.128;2022-12-18T03:22:00;101613.53;;;-1.33
24740;BMP280;45234;48.148;17.128;2022-12-18T03:24:32;101615.25;;;-1.33
24740;BMP280;45234;48.148;17.128;2022-12-18T03:27:05;101607.63;;;-1.33
24740;BMP280;45234;48.148;17.128;2022-12-18T03:29:48;101601.00;;;-1.37
24740;BMP280;45234;48.148;17.128;2022-12-18T03:32:38;101603.66;;;-1.40
24740;BMP280;45234;48.148;17.128;2022-12-18T03:35:07;101607.81;;;-1.38
24740;BMP280;45234;48.148;17.128;2022-12-18T03:37:37;101598.47;;;-1.37
24740;BMP280;45234;48.148;17.128;2022-12-18T03:40:05;101597.66;;;-1.39
24740;BMP280;45234;48.148;17.128;2022-12-18T03:42:48;101603.66;;;-1.40
24740;BMP280;45234;48.148;17.128;2022-12-18T03:45:26;101594.38;;;-1.41
24740;BMP280;45234;48.148;17.128;2022-12-18T03:48:14;101592.06;;;-1.46
24740;BMP280;45234;48.148;17.128;2022-12-18T03:53:47;101598.38;;;-1.55
24740;BMP280;45234;48.148;17.128;2022-12-18T03:56:22;101598.13;;;-1.49
24740;BMP280;45234;48.148;17.128;2022-12-18T03:58:52;101603.31;;;-1.52
24740;BMP280;45234;48.148;17.128;2022-12-18T04:01:30;101602.72;;;-1.57
24740;BMP280;45234;48.148;17.128;2022-12-18T04:04:00;101615.13;;;-1.51
24740;BMP280;45234;48.148;17.128;2022-12-18T04:06:33;101613.50;;;-1.52
24740;BMP280;45234;48.148;17.128;2022-12-18T04:09:00;101611.84;;;-1.53
24740;BMP280;45234;48.148;17.128;2022-12-18T04:11:29;101615.28;;;-1.54
24740;BMP280;45234;48.148;17.128;2022-12-18T04:13:57;101613.56;;;-1.53
24740;BMP280;45234;48.148;17.128;2022-12-18T04:16:25;101621.19;;;-1.53
24740;BMP280;45234;48.148;17.128;2022-12-18T04:18:57;101633.97;;;-1.55
24740;BMP280;45234;48.148;17.128;2022-12-18T04:21:26;101630.41;;;-1.51
24740;BMP280;45234;48.148;17.128;2022-12-18T04:23:53;101631.19;;;-1.49
24740;BMP280;45234;48.148;17.128;2022-12-18T04:26:21;101640.31;;;-1.45
24740;BMP280;45234;48.148;17.128;2022-12-18T04:28:58;101637.69;;;-1.43
24740;BMP280;45234;48.148;17.128;2022-12-18T04:31:25;101642.69;;;-1.41
24740;BMP280;45234;48.148;17.128;2022-12-18T04:33:52;101641.13;;;-1.44
24740;BMP280;45234;48.148;17.128;2022-12-18T04:36:19;101648.69;;;-1.42
24740;BMP280;45234;48.148;17.128;2022-12-18T04:38:46;101647.13;;;-1.45
24740;BMP280;45234;48.148;17.128;2022-12-18T04:41:15;101657.34;;;-1.47
24740;BMP280;45234;48.148;17.128;2022-12-18T04:43:45;101659.97;;;-1.48
24740;BMP280;45234;48.148;17.128;2022-12-18T04:46:12;101659.25;;;-1.52
24740;BMP280;45234;48.148;17.128;2022-12-18T04:48:39;101668.81;;;-1.57
24740;BMP280;45234;48.148;17.128;2022-12-18T04:51:07;101663.25;;;-1.65
24740;BMP280;45234;48.148;17.128;2022-12-18T04:53:34;101669.22;;;-1.66
24740;BMP280;45234;48.148;17.128;2022-12-18T04:56:19;101684.88;;;-1.75
24740;BMP280;45234;48.148;17.128;2022-12-18T04:58:46;101677.09;;;-1.72
24740;BMP280;45234;48.148;17.128;2022-12-18T05:01:14;101681.44;;;-1.74
24740;BMP280;45234;48.148;17.128;2022-12-18T05:03:41;101673.81;;;-1.74
24740;BMP280;45234;48.148;17.128;2022-12-18T05:06:10;101678.88;;;-1.74
24740;BMP280;45234;48.148;17.128;2022-12-18T05:08:38;101689.19;;;-1.77
24740;BMP280;45234;48.148;17.128;2022-12-18T05:11:13;101685.75;;;-1.76
24740;BMP280;45234;48.148;17.128;2022-12-18T05:13:44;101691.66;;;-1.76
24740;BMP280;45234;48.148;17.128;2022-12-18T05:16:12;101699.22;;;-1.74
24740;BMP280;45234;48.148;17.128;2022-12-18T05:18:40;101704.31;;;-1.74
24740;BMP280;45234;48.148;17.128;2022-12-18T05:21:07;101704.44;;;-1.77
24740;BMP280;45234;48.148;17.128;2022-12-18T05:23:33;101707.88;;;-1.78
24740;BMP280;45234;48.148;17.128;2022-12-18T05:26:03;101708.56;;;-1.75
24740;BMP280;45234;48.148;17.128;2022-12-18T05:28:32;101703.47;;;-1.75
24740;BMP280;45234;48.148;17.128;2022-12-18T05:31:00;101707.88;;;-1.78
24740;BMP280;45234;48.148;17.128;2022-12-18T05:33:33;101704.59;;;-1.80
24740;BMP280;45234;48.148;17.128;2022-12-18T05:36:02;101715.63;;;-1.81
24740;BMP280;45234;48.148;17.128;2022-12-18T05:38:30;101717.53;;;-1.86
24740;BMP280;45234;48.148;17.128;2022-12-18T05:40:57;101710.84;;;-1.89
24740;BMP280;45234;48.148;17.128;2022-12-18T05:43:26;101714.28;;;-1.90
24740;BMP280;45234;48.148;17.128;2022-12-18T05:45:54;101720.19;;;-1.89
24740;BMP280;45234;48.148;17.128;2022-12-18T05:48:21;101724.50;;;-1.91
24740;BMP280;45234;48.148;17.128;2022-12-18T05:50:49;101726.25;;;-1.93
24740;BMP280;45234;48.148;17.128;2022-12-18T05:53:18;101725.38;;;-1.92
24740;BMP280;45234;48.148;17.128;2022-12-18T05:55:46;101730.34;;;-1.89
24740;BMP280;45234;48.148;17.128;2022-12-18T05:58:14;101728.63;;;-1.89
24740;BMP280;45234;48.148;17.128;2022-12-18T06:00:43;101733.00;;;-1.92
24740;BMP280;45234;48.148;17.128;2022-12-18T06:03:11;101727.16;;;-1.94
24740;BMP280;45234;48.148;17.128;2022-12-18T06:05:43;101728.94;;;-1.96
24740;BMP280;45234;48.148;17.128;2022-12-18T06:08:11;101735.81;;;-1.98
24740;BMP280;45234;48.148;17.128;2022-12-18T06:10:38;101739.09;;;-1.96
24740;BMP280;45234;48.148;17.128;2022-12-18T06:13:06;101743.44;;;-1.98
24740;BMP280;45234;48.148;17.128;2022-12-18T06:15:35;101744.41;;;-2.03
24740;BMP280;45234;48.148;17.128;2022-12-18T06:18:02;101744.31;;;-1.99
24740;BMP280;45234;48.148;17.128;2022-12-18T06:20:29;101754.47;;;-1.99
24740;BMP280;45234;48.148;17.128;2022-12-18T06:22:59;101748.69;;;-2.03
24740;BMP280;45234;48.148;17.128;2022-12-18T06:25:26;101748.81;;;-2.06
24740;BMP280;45234;48.148;17.128;2022-12-18T06:27:53;101754.84;;;-2.09
24740;BMP280;45234;48.148;17.128;2022-12-18T06:30:20;101757.53;;;-2.12
24740;BMP280;45234;48.148;17.128;2022-12-18T06:32:48;101753.56;;;-2.19
24740;BMP280;45234;48.148;17.128;2022-12-18T06:35:22;101762.91;;;-2.19
24740;BMP280;45234;48.148;17.128;2022-12-18T06:37:48;101765.50;;;-2.21
24740;BMP280;45234;48.148;17.128;2022-12-18T06:40:16;101773.06;;;-2.19
24740;BMP280;45234;48.148;17.128;2022-12-18T06:42:42;101777.25;;;-2.18
24740;BMP280;45234;48.148;17.128;2022-12-18T06:45:09;101774.72;;;-2.18
24740;BMP280;45234;48.148;17.128;2022-12-18T06:47:37;101773.19;;;-2.22
24740;BMP280;45234;48.148;17.128;2022-12-18T06:50:04;101781.50;;;-2.19
24740;BMP280;45234;48.148;17.128;2022-12-18T06:52:32;101789.13;;;-2.19
24740;BMP280;45234;48.148;17.128;2022-12-18T06:55:00;101784.81;;;-2.17
24740;BMP280;45234;48.148;17.128;2022-12-18T06:57:27;101789.00;;;-2.16
24740;BMP280;45234;48.148;17.128;2022-12-18T06:59:54;101796.56;;;-2.14
24740;BMP280;45234;48.148;17.128;2022-12-18T07:02:21;101806.66;;;-2.13
24740;BMP280;45234;48.148;17.128;2022-12-18T07:04:48;101811.56;;;-2.08
24740;BMP280;45234;48.148;17.128;2022-12-18T07:07:15;101819.88;;;-2.05
24740;BMP280;45234;48.148;17.128;2022-12-18T07:09:42;101825.72;;;-2.03
24740;BMP280;45234;48.148;17.128;2022-12-18T07:12:08;101836.75;;;-2.02
24740;BMP280;45234;48.148;17.128;2022-12-18T07:14:35;101839.97;;;-1.98
24740;BMP280;45234;48.148;17.128;2022-12-18T07:17:02;101846.50;;;-1.91
24740;BMP280;45234;48.148;17.128;2022-12-18T07:19:30;101842.91;;;-1.86
24740;BMP280;45234;48.148;17.128;2022-12-18T07:21:57;101851.59;;;-1.71
24740;BMP280;45234;48.148;17.128;2022-12-18T07:24:25;101860.50;;;-1.59
24740;BMP280;45234;48.148;17.128;2022-12-18T07:26:51;101855.72;;;-1.47
24740;BMP280;45234;48.148;17.128;2022-12-18T07:29:18;101864.53;;;-1.33
24740;BMP280;45234;48.148;17.128;2022-12-18T07:31:45;101868.19;;;-1.20
24740;BMP280;45234;48.148;17.128;2022-12-18T07:34:13;101860.94;;;-1.09
24740;BMP280;45234;48.148;17.128;2022-12-18T07:36:41;101875.56;;;-0.94
24740;BMP280;45234;48.148;17.128;2022-12-18T07:39:08;101880.38;;;-0.88
24740;BMP280;45234;48.148;17.128;2022-12-18T07:41:35;101876.63;;;-0.79
24740;BMP280;45234;48.148;17.128;2022-12-18T07:44:10;101887.38;;;-0.72
24740;BMP280;45234;48.148;17.128;2022-12-18T07:46:37;101879.19;;;-0.60
24740;BMP280;45234;48.148;17.128;2022-12-18T07:49:04;101882.97;;;-0.50
24740;BMP280;45234;48.148;17.128;2022-12-18T07:51:30;101886.78;;;-0.40
24740;BMP280;45234;48.148;17.128;2022-12-18T07:53:57;101886.41;;;-0.31
24740;BMP280;45234;48.148;17.128;2022-12-18T07:56:24;101894.38;;;-0.19
24740;BMP280;45234;48.148;17.128;2022-12-18T07:58:54;101893.97;;;-0.10
24740;BMP280;45234;48.148;17.128;2022-12-18T08:01:21;101896.84;;;0.01
24740;BMP280;45234;48.148;17.128;2022-12-18T08:03:49;101895.50;;;0.11
24740;BMP280;45234;48.148;17.128;2022-12-18T08:06:18;101902.75;;;0.02
24740;BMP280;45234;48.148;17.128;2022-12-18T08:08:48;101902.84;;;0.00
24740;BMP280;45234;48.148;17.128;2022-12-18T08:11:15;101912.13;;;0.01
24740;BMP280;45234;48.148;17.128;2022-12-18T08:13:42;101915.50;;;0.02
24740;BMP280;45234;48.148;17.128;2022-12-18T08:16:09;101916.41;;;0.01
24740;BMP280;45234;48.148;17.128;2022-12-18T08:18:37;101914.84;;;0.15
24740;BMP280;45234;48.148;17.128;2022-12-18T08:21:12;101914.28;;;0.27
24740;BMP280;45234;48.148;17.128;2022-12-18T08:23:39;101912.09;;;0.54
24740;BMP280;45234;48.148;17.128;2022-12-18T08:26:09;101911.72;;;0.62
24740;BMP280;45234;48.148;17.128;2022-12-18T08:28:37;101923.28;;;0.69
24740;BMP280;45234;48.148;17.128;2022-12-18T08:31:04;101921.78;;;0.82
24740;BMP280;45234;48.148;17.128;2022-12-18T08:33:32;101921.94;;;0.97
24740;BMP280;45234;48.148;17.128;2022-12-18T08:36:00;101924.00;;;1.06
24740;BMP280;45234;48.148;17.128;2022-12-18T08:38:27;101926.16;;;1.13
24740;BMP280;45234;48.148;17.128;2022-12-18T08:41:06;101924.00;;;1.06
24740;BMP280;45234;48.148;17.128;2022-12-18T08:43:33;101920.41;;;1.10
24740;BMP280;45234;48.148;17.128;2022-12-18T08:46:19;101912.38;;;1.00
24740;BMP280;45234;48.148;17.128;2022-12-18T08:48:47;101928.91;;;0.93
24740;BMP280;45234;48.148;17.128;2022-12-18T08:51:16;101925.22;;;0.81
24740;BMP280;45234;48.148;17.128;2022-12-18T08:53:44;101921.31;;;0.74
24740;BMP280;45234;48.148;17.128;2022-12-18T08:56:12;101932.44;;;0.73
24740;BMP280;45234;48.148;17.128;2022-12-18T08:58:40;101931.31;;;0.79
24740;BMP280;45234;48.148;17.128;2022-12-18T09:01:09;101935.59;;;0.78
24740;BMP280;45234;48.148;17.128;2022-12-18T09:03:37;101937.84;;;0.84
24740;BMP280;45234;48.148;17.128;2022-12-18T09:06:05;101943.22;;;0.96
24740;BMP280;45234;48.148;17.128;2022-12-18T09:08:35;101932.28;;;0.94
24740;BMP280;45234;48.148;17.128;2022-12-18T09:11:03;101939.56;;;1.01
24740;BMP280;45234;48.148;17.128;2022-12-18T09:13:30;101948.22;;;0.99
24740;BMP280;45234;48.148;17.128;2022-12-18T09:15:57;101949.69;;;1.03
24740;BMP280;45234;48.148;17.128;2022-12-18T09:18:24;101950.69;;;1.00
24740;BMP280;45234;48.148;17.128;2022-12-18T09:20:51;101951.50;;;1.01
24740;BMP280;45234;48.148;17.128;2022-12-18T09:23:20;101938.81;;;0.99
24740;BMP280;45234;48.148;17.128;2022-12-18T09:25:47;101943.56;;;0.90
24740;BMP280;45234;48.148;17.128;2022-12-18T09:28:17;101940.72;;;0.78
24740;BMP280;45234;48.148;17.128;2022-12-18T09:30:47;101945.06;;;0.76
24740;BMP280;45234;48.148;17.128;2022-12-18T09:33:14;101947.75;;;0.73
24740;BMP280;45234;48.148;17.128;2022-12-18T09:35:43;101943.97;;;0.63
24740;BMP280;45234;48.148;17.128;2022-12-18T09:38:15;101948.06;;;0.67
24740;BMP280;45234;48.148;17.128;2022-12-18T09:43:57;101952.34;;;0.67
24740;BMP280;45234;48.148;17.128;2022-12-18T09:46:35;101960.81;;;0.84
24740;BMP280;45234;48.148;17.128;2022-12-18T09:49:06;101959.25;;;0.99
24740;BMP280;45234;48.148;17.128;2022-12-18T09:51:40;101958.41;;;0.99
24740;BMP280;45234;48.148;17.128;2022-12-18T09:54:34;101950.38;;;1.06
24740;BMP280;45234;48.148;17.128;2022-12-18T09:57:02;101951.41;;;1.35
24740;BMP280;45234;48.148;17.128;2022-12-18T09:59:38;101953.13;;;1.52
24740;BMP280;45234;48.148;17.128;2022-12-18T10:02:21;101947.19;;;1.52
24740;BMP280;45234;48.148;17.128;2022-12-18T10:07:41;101927.56;;;1.68
24740;BMP280;45234;48.148;17.128;2022-12-18T10:10:23;101935.31;;;1.66
24740;BMP280;45234;48.148;17.128;2022-12-18T10:13:08;101936.31;;;1.64
24740;BMP280;45234;48.148;17.128;2022-12-18T10:15:38;101928.81;;;1.61
24740;BMP280;45234;48.148;17.128;2022-12-18T10:20:54;101931.19;;;1.95
24740;BMP280;45234;48.148;17.128;2022-12-18T10:30:15;101934.66;;;1.94
24740;BMP280;45234;48.148;17.128;2022-12-18T10:32:43;101927.81;;;1.79
24740;BMP280;45234;48.148;17.128;2022-12-18T10:35:22;101930.47;;;1.77
24740;BMP280;45234;48.148;17.128;2022-12-18T10:40:30;101920.53;;;1.87
24740;BMP280;45234;48.148;17.128;2022-12-18T10:43:04;101920.16;;;1.79
24740;BMP280;45234;48.148;17.128;2022-12-18T10:45:32;101915.84;;;1.80
24740;BMP280;45234;48.148;17.128;2022-12-18T10:47:59;101921.78;;;1.80
24740;BMP280;45234;48.148;17.128;2022-12-18T10:50:36;101912.81;;;1.73
24740;BMP280;45234;48.148;17.128;2022-12-18T10:53:27;101913.72;;;1.72
24740;BMP280;45234;48.148;17.128;2022-12-18T10:55:56;101916.69;;;1.80
24740;BMP280;45234;48.148;17.128;2022-12-18T10:58:32;101910.19;;;1.74
24740;BMP280;45234;48.148;17.128;2022-12-18T11:01:18;101916.03;;;1.61
24740;BMP280;45234;48.148;17.128;2022-12-18T11:06:21;101913.03;;;1.53
24740;BMP280;45234;48.148;17.128;2022-12-18T11:09:27;101906.09;;;1.23
24740;BMP280;45234;48.148;17.128;2022-12-18T11:11:56;101902.97;;;1.18
24740;BMP280;45234;48.148;17.128;2022-12-18T11:14:30;101907.34;;;1.32
24740;BMP280;45234;48.148;17.128;2022-12-18T11:16:59;101916.81;;;1.45
24740;BMP280;45234;48.148;17.128;2022-12-18T11:20:02;101910.41;;;1.38
24740;BMP280;45234;48.148;17.128;2022-12-18T11:22:31;101899.63;;;1.16
24740;BMP280;45234;48.148;17.128;2022-12-18T11:25:26;101899.03;;;1.44
24740;BMP280;45234;48.148;17.128;2022-12-18T11:28:03;101896.53;;;1.58
24740;BMP280;45234;48.148;17.128;2022-12-18T11:30:33;101894.97;;;1.40
24740;BMP280;45234;48.148;17.128;2022-12-18T11:33:14;101894.81;;;1.27
24740;BMP280;45234;48.148;17.128;2022-12-18T11:38:24;101895.13;;;1.21
24740;BMP280;45234;48.148;17.128;2022-12-18T11:49:03;101888.88;;;1.27
24740;BMP280;45234;48.148;17.128;2022-12-18T11:51:43;101896.53;;;1.27
24740;BMP280;45234;48.148;17.128;2022-12-18T11:54:16;101896.31;;;1.31
24740;BMP280;45234;48.148;17.128;2022-12-18T11:57:08;101889.28;;;1.35
24740;BMP280;45234;48.148;17.128;2022-12-18T12:16:29;101897.56;;;1.71
24740;BMP280;45234;48.148;17.128;2022-12-18T12:19:06;101901.19;;;1.67
24740;BMP280;45234;48.148;17.128;2022-12-18T12:21:41;101893.25;;;1.56
24740;BMP280;45234;48.148;17.128;2022-12-18T12:40:34;101894.59;;;0.99
24740;BMP280;45234;48.148;17.128;2022-12-18T12:43:44;101885.56;;;0.92
24740;BMP280;45234;48.148;17.128;2022-12-18T12:46:18;101884.00;;;0.89
24740;BMP280;45234;48.148;17.128;2022-12-18T12:48:51;101892.50;;;0.90
24740;BMP280;45234;48.148;17.128;2022-12-18T12:53:49;101897.44;;;0.93
24740;BMP280;45234;48.148;17.128;2022-12-18T12:56:18;101896.53;;;0.94
24740;BMP280;45234;48.148;17.128;2022-12-18T12:59:10;101873.06;;;0.87
24740;BMP280;45234;48.148;17.128;2022-12-18T13:07:29;101887.38;;;0.90
24740;BMP280;45234;48.148;17.128;2022-12-18T13:13:07;101894.38;;;0.86
24740;BMP280;45234;48.148;17.128;2022-12-18T13:16:06;101901.34;;;0.82
24740;BMP280;45234;48.148;17.128;2022-12-18T13:18:34;101898.06;;;0.80
24740;BMP280;45234;48.148;17.128;2022-12-18T13:21:20;101901.50;;;0.79
24740;BMP280;45234;48.148;17.128;2022-12-18T13:23:50;101897.22;;;0.80
24740;BMP280;45234;48.148;17.128;2022-12-18T13:28:53;101913.22;;;0.83
24740;BMP280;45234;48.148;17.128;2022-12-18T13:34:19;101914.66;;;0.72
24740;BMP280;45234;48.148;17.128;2022-12-18T13:39:59;101930.13;;;0.69
24740;BMP280;45234;48.148;17.128;2022-12-18T13:42:38;101912.63;;;0.61
24740;BMP280;45234;48.148;17.128;2022-12-18T13:45:43;101928.66;;;0.63
24740;BMP280;45234;48.148;17.128;2022-12-18T13:48:23;101930.94;;;0.69
24740;BMP280;45234;48.148;17.128;2022-12-18T13:51:03;101928.31;;;0.71
24740;BMP280;45234;48.148;17.128;2022-12-18T13:53:52;101937.84;;;0.67
24740;BMP280;45234;48.148;17.128;2022-12-18T13:56:26;101935.06;;;0.72
24740;BMP280;45234;48.148;17.128;2022-12-18T13:59:17;101941.91;;;0.71
24740;BMP280;45234;48.148;17.128;2022-12-18T14:04:32;101936.88;;;0.70
24740;BMP280;45234;48.148;17.128;2022-12-18T14:07:10;101950.69;;;0.66
24740;BMP280;45234;48.148;17.128;2022-12-18T14:09:43;101952.47;;;0.64
24740;BMP280;45234;48.148;17.128;2022-12-18T14:12:22;101947.53;;;0.61
24740;BMP280;45234;48.148;17.128;2022-12-18T14:15:36;101958.88;;;0.55
24740;BMP280;45234;48.148;17.128;2022-12-18T14:18:25;101962.31;;;0.54
24740;BMP280;45234;48.148;17.128;2022-12-18T14:20:56;101958.94;;;0.53
24740;BMP280;45234;48.148;17.128;2022-12-18T14:23:32;101958.41;;;0.47
24740;BMP280;45234;48.148;17.128;2022-12-18T14:26:01;101948.84;;;0.33
24740;BMP280;45234;48.148;17.128;2022-12-18T14:28:31;101965.56;;;0.39
24740;BMP280;45234;48.148;17.128;2022-12-18T14:30:58;101962.28;;;0.37
24740;BMP280;45234;48.148;17.128;2022-12-18T14:33:27;101961.53;;;0.35
24740;BMP280;45234;48.148;17.128;2022-12-18T14:38:24;101968.13;;;0.21
24740;BMP280;45234;48.148;17.128;2022-12-18T14:40:59;101977.47;;;0.21
24740;BMP280;45234;48.148;17.128;2022-12-18T14:43:35;101981.00;;;0.18
24740;BMP280;45234;48.148;17.128;2022-12-18T14:48:56;101985.63;;;0.10
24740;BMP280;45234;48.148;17.128;2022-12-18T14:51:27;101986.97;;;0.00
24740;BMP280;45234;48.148;17.128;2022-12-18T14:53:57;101980.97;;;0.01
24740;BMP280;45234;48.148;17.128;2022-12-18T14:56:33;101986.81;;;0.03
24740;BMP280;45234;48.148;17.128;2022-12-18T14:59:06;101996.78;;;0.08
24740;BMP280;45234;48.148;17.128;2022-12-18T15:07:18;101989.38;;;0.03
24740;BMP280;45234;48.148;17.128;2022-12-18T15:10:15;101999.41;;;0.06
24740;BMP280;45234;48.148;17.128;2022-12-18T15:20:32;101997.97;;;-0.18
24740;BMP280;45234;48.148;17.128;2022-12-18T15:23:03;102002.78;;;-0.12
24740;BMP280;45234;48.148;17.128;2022-12-18T15:25:37;102002.78;;;-0.31
24740;BMP280;45234;48.148;17.128;2022-12-18T15:28:21;102009.06;;;-0.40
24740;BMP280;45234;48.148;17.128;2022-12-18T15:31:03;102014.41;;;-0.46
24740;BMP280;45234;48.148;17.128;2022-12-18T15:33:34;102024.34;;;-0.40
24740;BMP280;45234;48.148;17.128;2022-12-18T15:36:03;102023.38;;;-0.37
24740;BMP280;45234;48.148;17.128;2022-12-18T15:38:31;102020.75;;;-0.36
24740;BMP280;45234;48.148;17.128;2022-12-18T15:40:58;102020.75;;;-0.36
24740;BMP280;45234;48.148;17.128;2022-12-18T15:43:26;102014.84;;;-0.36
24740;BMP280;45234;48.148;17.128;2022-12-18T15:46:13;102009.06;;;-0.40
24740;BMP280;45234;48.148;17.128;2022-12-18T15:48:42;102003.97;;;-0.40
24740;BMP280;45234;48.148;17.128;2022-12-18T15:51:31;101991.31;;;-0.41
24740;BMP280;45234;48.148;17.128;2022-12-18T15:54:01;101996.88;;;-0.33
24740;BMP280;45234;48.148;17.128;2022-12-18T15:56:30;102001.97;;;-0.32
24740;BMP280;45234;48.148;17.128;2022-12-18T15:59:19;102002.03;;;-0.35
24740;BMP280;45234;48.148;17.128;2022-12-18T16:01:48;101999.19;;;-0.27
24740;BMP280;45234;48.148;17.128;2022-12-18T16:04:20;102004.88;;;-0.20
24740;BMP280;45234;48.148;17.128;2022-12-18T16:06:50;102006.16;;;-0.12
24740;BMP280;45234;48.148;17.128;2022-12-18T16:09:38;102012.88;;;-0.09
24740;BMP280;45234;48.148;17.128;2022-12-18T16:12:06;102017.66;;;-0.03
24740;BMP280;45234;48.148;17.128;2022-12-18T16:14:37;102017.41;;;0.03
24740;BMP280;45234;48.148;17.128;2022-12-18T16:17:10;102024.31;;;0.01
24740;BMP280;45234;48.148;17.128;2022-12-18T16:19:38;102019.06;;;0.04
24740;BMP280;45234;48.148;17.128;2022-12-18T16:22:05;102022.03;;;0.14
24740;BMP280;45234;48.148;17.128;2022-12-18T16:24:34;102032.97;;;0.16
24740;BMP280;45234;48.148;17.128;2022-12-18T16:27:04;102032.00;;;0.18
24740;BMP280;45234;48.148;17.128;2022-12-18T16:29:33;102035.69;;;0.13
24740;BMP280;45234;48.148;17.128;2022-12-18T16:32:01;102034.56;;;0.18
24740;BMP280;45234;48.148;17.128;2022-12-18T16:34:33;102033.81;;;0.16